createdAt,value
2023-04-20T00:01:36.167Z,17.92
2023-04-20T00:11:41.558Z,11.80
2023-04-20T00:16:45.971Z,13.63
2023-04-20T00:26:51.724Z,13.00
2023-04-20T00:31:57.039Z,14.03
2023-04-20T00:36:59.803Z,14.10
2023-04-20T00:42:06.459Z,15.23
2023-04-20T00:47:12.804Z,14.27
2023-04-20T00:52:15.567Z,11.38
2023-04-20T00:57:20.008Z,11.90
2023-04-20T01:02:24.132Z,12.38
2023-04-20T01:07:27.140Z,13.25
2023-04-20T01:12:29.833Z,16.70
2023-04-20T01:17:34.847Z,14.23
2023-04-20T01:22:44.850Z,11.23
2023-04-20T01:27:47.539Z,14.02
2023-04-20T01:32:50.870Z,14.95
2023-04-20T01:37:55.418Z,14.83
2023-04-20T01:42:58.829Z,12.88
2023-04-20T01:48:02.388Z,8.63
2023-04-20T01:53:06.721Z,14.45
2023-04-20T01:58:09.564Z,6.50
2023-04-20T02:03:12.280Z,14.65
2023-04-20T02:08:17.327Z,13.02
2023-04-20T02:13:20.505Z,11.23
2023-04-20T02:18:26.144Z,11.60
2023-04-20T02:23:31.013Z,7.55
2023-04-20T02:28:34.356Z,11.35
2023-04-20T02:33:37.302Z,9.57
2023-04-20T02:38:41.420Z,7.22
2023-04-20T02:43:44.715Z,5.10
2023-04-20T02:48:48.493Z,5.60
2023-04-20T02:53:53.296Z,4.35
2023-04-20T02:58:56.405Z,8.32
2023-04-20T03:03:59.981Z,10.18
2023-04-20T03:09:04.376Z,10.93
2023-04-20T03:19:09.943Z,5.72
2023-04-20T03:24:13.897Z,11.32
2023-04-20T03:29:16.934Z,10.00
2023-04-20T03:34:22.128Z,11.95
2023-04-20T03:39:26.996Z,8.32
2023-04-20T03:44:30.276Z,10.38
2023-04-20T03:49:32.782Z,10.32
2023-04-20T03:54:37.263Z,9.65
2023-04-20T04:04:42.683Z,11.93
2023-04-20T04:09:46.612Z,5.15
2023-04-20T04:14:49.153Z,6.18
2023-04-20T04:19:52.015Z,4.93
2023-04-20T04:24:56.032Z,6.85
2023-04-20T04:29:59.007Z,9.57
2023-04-20T04:35:02.211Z,9.48
2023-04-20T04:40:08.826Z,8.35
2023-04-20T04:45:13.797Z,12.18
2023-04-20T04:50:18.586Z,9.45
2023-04-20T04:55:22.577Z,7.00
2023-04-20T05:00:26.288Z,9.25
2023-04-20T05:05:33.876Z,8.73
2023-04-20T05:10:39.189Z,6.00
2023-04-20T05:15:43.923Z,9.65
2023-04-20T05:25:51.017Z,7.22
2023-04-20T05:30:55.239Z,6.50
2023-04-20T05:35:58.550Z,6.93
2023-04-20T05:41:02.777Z,2.92
2023-04-20T05:46:06.517Z,7.82
2023-04-20T05:51:09.209Z,6.78
2023-04-20T05:56:13.824Z,6.63
2023-04-20T06:01:17.847Z,11.10
2023-04-20T06:06:20.832Z,5.43
2023-04-20T06:11:24.854Z,5.35
2023-04-20T06:16:28.225Z,4.63
2023-04-20T06:21:34.165Z,6.50
2023-04-20T06:26:38.146Z,8.40
2023-04-20T06:31:40.840Z,5.03
2023-04-20T06:36:44.604Z,6.57
2023-04-20T06:41:48.694Z,5.68
2023-04-20T06:51:53.833Z,6.50
2023-04-20T06:56:57.785Z,8.35
2023-04-20T07:02:00.603Z,10.32
2023-04-20T07:07:03.341Z,9.52
2023-04-20T07:12:07.531Z,9.88
2023-04-20T07:22:18.150Z,5.53
2023-04-20T07:27:22.109Z,9.27
2023-04-20T07:32:25.344Z,7.38
2023-04-20T07:37:28.820Z,4.93
2023-04-20T07:42:32.974Z,7.40
2023-04-20T07:52:38.569Z,7.60
2023-04-20T07:57:42.614Z,9.18
2023-04-20T08:02:45.358Z,4.75
2023-04-20T08:07:48.454Z,5.85
2023-04-20T08:12:53.497Z,5.68
2023-04-20T08:17:56.506Z,7.35
2023-04-20T08:22:59.505Z,5.97
2023-04-20T08:28:06.037Z,4.25
2023-04-20T08:33:09.691Z,8.38
2023-04-20T08:38:15.656Z,4.25
2023-04-20T08:43:22.384Z,9.98
2023-04-20T08:48:26.618Z,6.75
2023-04-20T08:53:29.226Z,4.05
2023-04-20T08:58:33.847Z,7.40
2023-04-20T09:03:37.383Z,5.50
2023-04-20T09:08:41.214Z,6.45
2023-04-20T09:13:45.473Z,7.60
2023-04-20T09:18:52.460Z,7.38
2023-04-20T09:23:57.476Z,7.88
2023-04-20T09:29:02.758Z,11.05
2023-04-20T09:34:05.804Z,9.13
2023-04-20T09:39:09.256Z,12.47
2023-04-20T09:44:13.705Z,8.80
2023-04-20T09:49:17.088Z,4.82
2023-04-20T09:54:20.655Z,8.10
2023-04-20T09:59:25.592Z,7.10
2023-04-20T10:04:28.506Z,14.05
2023-04-20T10:09:34.517Z,7.78
2023-04-20T10:14:38.998Z,5.93
2023-04-20T10:19:42.065Z,5.38
2023-04-20T10:24:44.975Z,4.13
2023-04-20T10:29:48.939Z,3.85
2023-04-20T10:39:54.469Z,6.95
2023-04-20T10:44:59.288Z,6.90
2023-04-20T10:55:06.892Z,6.00
2023-04-20T11:00:19.288Z,6.25
2023-04-20T11:05:23.409Z,9.98
2023-04-20T11:10:27.371Z,6.75
2023-04-20T11:15:33.826Z,7.25
2023-04-20T11:20:36.534Z,5.13
2023-04-20T11:25:49.302Z,9.25
2023-04-20T11:30:53.439Z,7.18
2023-04-20T11:41:04.361Z,7.35
2023-04-20T11:46:15.707Z,7.22
2023-04-20T11:51:18.383Z,8.18
2023-04-20T12:21:37.219Z,5.30
2023-04-20T12:26:40.642Z,5.22
2023-04-20T12:31:43.282Z,7.95
2023-04-20T12:36:48.308Z,7.03
2023-04-20T12:41:50.865Z,7.60
2023-04-20T12:46:53.959Z,5.25
2023-04-20T12:51:58.347Z,8.97
2023-04-20T12:57:02.537Z,6.93
2023-04-20T13:02:05.787Z,8.02
2023-04-20T13:07:09.872Z,8.85
2023-04-20T13:12:12.475Z,9.90
2023-04-20T13:17:15.100Z,8.60
2023-04-20T13:22:19.913Z,6.65
2023-04-20T13:27:22.495Z,11.68
2023-04-20T13:32:25.525Z,13.50
2023-04-20T13:37:29.897Z,13.07
2023-04-20T13:47:35.325Z,14.77
2023-04-20T13:52:39.459Z,8.68
2023-04-20T14:02:44.835Z,15.45
2023-04-20T14:07:48.833Z,12.75
2023-04-20T14:12:51.699Z,17.38
2023-04-20T14:17:54.282Z,18.65
2023-04-20T14:22:58.269Z,14.95
2023-04-20T14:28:00.923Z,16.42
2023-04-20T14:33:06.543Z,15.30
2023-04-20T14:38:11.203Z,16.83
2023-04-20T14:43:14.170Z,15.20
2023-04-20T14:48:18.147Z,15.98
2023-04-20T14:53:22.996Z,18.25
2023-04-20T14:58:25.725Z,16.33
2023-04-20T15:03:28.522Z,18.40
2023-04-20T15:08:33.712Z,18.60
2023-04-20T15:13:41.135Z,22.52
2023-04-20T16:49:48.042Z,18.08
2023-04-20T16:54:59.141Z,16.73
2023-04-20T17:00:01.788Z,19.55
2023-04-20T17:05:06.958Z,19.30
2023-04-20T17:10:09.930Z,16.50
2023-04-20T17:15:13.285Z,17.67
2023-04-20T17:20:17.914Z,19.95
2023-04-20T17:30:32.971Z,20.52
2023-04-20T17:35:38.106Z,20.75
2023-04-20T17:40:41.384Z,19.67
2023-04-20T17:45:44.869Z,15.03
2023-04-20T17:50:50.461Z,22.25
2023-04-20T17:55:53.065Z,20.80
2023-04-20T18:00:55.662Z,18.65
2023-04-20T18:05:59.585Z,20.77
2023-04-20T18:11:02.919Z,24.00
2023-04-20T18:16:07.476Z,17.70
2023-04-20T18:21:14.044Z,22.88
2023-04-20T18:26:18.339Z,20.13
2023-04-20T18:31:21.331Z,16.70
2023-04-20T18:36:25.353Z,21.38
2023-04-20T18:41:29.794Z,19.55
2023-04-20T18:46:35.109Z,22.17
2023-04-20T18:51:39.170Z,8.73
2023-04-20T18:56:41.868Z,15.80
2023-04-20T19:01:44.639Z,23.27
2023-04-20T19:06:48.866Z,14.77
2023-04-20T19:11:51.875Z,14.93
2023-04-20T19:16:55.065Z,15.13
2023-04-20T19:22:00.469Z,21.20
2023-04-20T19:27:04.606Z,20.38
2023-04-20T19:32:07.509Z,15.20
2023-04-20T19:37:11.925Z,20.08
2023-04-20T19:42:14.726Z,20.88
2023-04-20T19:47:17.243Z,23.83
2023-04-20T19:52:21.559Z,21.10
2023-04-20T19:57:24.954Z,19.20
2023-04-20T20:02:28.181Z,19.00
2023-04-20T20:07:32.209Z,17.30
2023-04-20T20:12:34.873Z,27.27
2023-04-20T20:17:37.643Z,17.33
2023-04-20T20:22:48.125Z,19.90
2023-04-20T20:27:51.055Z,17.08
2023-04-20T20:32:54.047Z,22.50
2023-04-20T20:37:58.080Z,24.73
2023-04-20T20:43:00.759Z,23.15
2023-04-20T20:48:03.729Z,22.20
2023-04-20T20:53:07.842Z,19.17
2023-04-20T20:58:10.604Z,22.17
2023-04-20T21:03:13.760Z,26.13
2023-04-20T21:08:18.355Z,21.83
2023-04-20T21:13:21.943Z,19.73
2023-04-20T21:18:24.751Z,21.67
2023-04-20T21:23:28.706Z,20.48
2023-04-20T21:28:31.380Z,23.92
2023-04-20T21:33:34.931Z,24.10
2023-04-20T21:38:39.288Z,19.85
2023-04-20T21:43:43.553Z,14.90
2023-04-20T21:48:55.058Z,21.75
2023-04-20T21:53:58.945Z,21.88
2023-04-20T21:59:01.485Z,25.38
2023-04-20T22:04:04.420Z,25.83
2023-04-20T22:09:08.523Z,24.63
2023-04-20T22:14:11.522Z,18.88
2023-04-20T22:19:14.102Z,21.58
2023-04-20T22:24:18.298Z,24.20
2023-04-20T22:34:23.940Z,21.80
2023-04-20T22:39:28.118Z,23.67
2023-04-20T23:40:12.963Z,22.48
2023-04-20T23:45:16.328Z,20.65
